createdAt,value
2019-02-16T00:00:18.075Z,102631.56
2019-02-16T00:02:55.811Z,102631.88
2019-02-16T00:05:32.335Z,102634.45
2019-02-16T00:08:13.223Z,102638.52
2019-02-16T00:10:49.001Z,102639.45
2019-02-16T00:13:27.181Z,102633.43
2019-02-16T00:16:03.929Z,102636.04
2019-02-16T00:18:46.758Z,102634.09
2019-02-16T00:21:22.511Z,102632.31
2019-02-16T00:23:57.609Z,102636.05
2019-02-16T00:26:32.637Z,102632.59
2019-02-16T00:38:13.835Z,102621.33
2019-02-16T00:40:48.849Z,102618.89
2019-02-16T00:43:25.031Z,102613.91
2019-02-16T00:46:00.797Z,102608.41
2019-02-16T00:48:36.899Z,102613.89
2019-02-16T00:51:13.950Z,102608.20
2019-02-16T00:53:50.593Z,102608.86
2019-02-16T00:56:25.441Z,102602.16
2019-02-16T00:59:01.251Z,102611.40
2019-02-16T01:01:36.216Z,102607.84
2019-02-16T01:08:33.210Z,102601.70
2019-02-16T01:11:08.087Z,102592.41
2019-02-16T01:13:43.712Z,102592.41
2019-02-16T01:48:29.568Z,102549.52
2019-02-16T02:36:06.905Z,102502.80
2019-02-16T02:42:20.694Z,102491.50
2019-02-16T02:45:50.585Z,102489.39
2019-02-16T03:47:51.742Z,102461.37
2019-02-16T03:57:44.868Z,102462.61
2019-02-16T04:00:37.820Z,102459.48
2019-02-16T04:06:33.311Z,102466.33
2019-02-16T04:09:21.269Z,102477.86
2019-02-16T04:12:08.651Z,102469.78
2019-02-16T04:26:23.230Z,102458.18
2019-02-16T04:29:22.347Z,102466.84
2019-02-16T04:31:57.160Z,102466.44
2019-02-16T04:35:09.571Z,102456.98
2019-02-16T04:37:58.344Z,102456.33
2019-02-16T04:40:50.018Z,102468.09
2019-02-16T04:43:37.575Z,102467.37
2019-02-16T04:46:22.602Z,102467.19
2019-02-16T04:49:05.466Z,102460.65
2019-02-16T04:52:08.576Z,102453.94
2019-02-16T04:58:24.287Z,102454.50
2019-02-16T05:01:00.525Z,102460.75
2019-02-16T05:03:36.176Z,102461.38
2019-02-16T05:06:44.883Z,102458.13
2019-02-16T05:09:34.120Z,102465.41
2019-02-16T05:12:23.940Z,102467.05
2019-02-16T05:14:59.533Z,102474.95
2019-02-16T05:17:47.178Z,102474.45
2019-02-16T05:20:36.850Z,102472.50
2019-02-16T05:23:27.520Z,102465.27
2019-02-16T05:26:03.139Z,102460.63
2019-02-16T05:28:53.093Z,102462.42
2019-02-16T05:32:09.796Z,102458.53
2019-02-16T05:34:45.392Z,102456.55
2019-02-16T05:37:33.561Z,102455.86
2019-02-16T05:40:23.444Z,102447.57
2019-02-16T05:43:14.211Z,102447.45
2019-02-16T05:46:03.362Z,102440.03
2019-02-16T05:48:51.153Z,102440.92
2019-02-16T05:51:40.636Z,102451.41
2019-02-16T05:54:29.803Z,102452.80
2019-02-16T05:57:05.630Z,102445.95
2019-02-16T05:59:55.963Z,102443.65
2019-02-16T06:02:31.574Z,102447.14
2019-02-16T06:09:01.125Z,102444.31
2019-02-16T06:12:02.287Z,102438.78
2019-02-16T06:19:02.854Z,102432.38
2019-02-16T06:25:39.083Z,102434.52
2019-02-16T06:28:27.994Z,102445.23
2019-02-16T06:31:16.214Z,102450.45
2019-02-16T06:34:05.233Z,102445.90
2019-02-16T06:36:59.118Z,102450.30
2019-02-16T06:39:50.672Z,102455.98
2019-02-16T06:42:35.886Z,102455.01
2019-02-16T06:45:33.597Z,102462.80
2019-02-16T06:48:24.814Z,102456.63
2019-02-16T06:51:12.808Z,102459.23
2019-02-16T06:54:01.660Z,102450.45
2019-02-16T07:11:09.707Z,102449.45
2019-02-16T07:13:44.654Z,102465.22
2019-02-16T07:24:47.012Z,102456.87
2019-02-16T07:27:23.044Z,102460.30
2019-02-16T07:30:03.087Z,102457.16
2019-02-16T07:36:36.280Z,102455.30
2019-02-16T07:39:13.926Z,102442.23
2019-02-16T07:41:49.826Z,102454.03
2019-02-16T07:44:33.972Z,102455.00
2019-02-16T07:47:43.078Z,102463.45
2019-02-16T07:50:27.594Z,102465.59
2019-02-16T07:53:31.278Z,102473.38
2019-02-16T07:56:10.910Z,102472.18
2019-02-16T07:59:03.612Z,102476.39
2019-02-16T08:01:45.612Z,102478.13
2019-02-16T08:04:43.534Z,102487.34
2019-02-16T08:07:44.414Z,102484.73
2019-02-16T08:10:47.652Z,102486.55
2019-02-16T08:13:29.777Z,102486.14
2019-02-16T08:16:34.613Z,102484.29
2019-02-16T08:19:26.274Z,102479.70
2019-02-16T08:22:10.606Z,102473.48
2019-02-16T08:28:45.380Z,102467.45
2019-02-16T08:31:39.724Z,102461.78
2019-02-16T08:34:46.192Z,102466.06
2019-02-16T08:37:40.972Z,102456.08
2019-02-16T08:40:34.950Z,102459.42
2019-02-16T08:43:29.138Z,102473.20
2019-02-16T08:46:21.739Z,102474.28
2019-02-16T08:49:13.744Z,102468.94
2019-02-16T08:52:07.399Z,102464.37
2019-02-16T08:55:02.827Z,102464.66
2019-02-16T08:58:09.401Z,102467.13
2019-02-16T09:01:07.821Z,102467.30
2019-02-16T09:04:12.609Z,102469.08
2019-02-16T09:06:57.580Z,102455.86
2019-02-16T09:10:02.282Z,102460.48
2019-02-16T09:12:55.133Z,102457.37
2019-02-16T09:15:51.991Z,102464.09
2019-02-16T09:18:45.101Z,102461.75
2019-02-16T09:21:37.683Z,102450.86
2019-02-16T09:24:22.110Z,102450.92
2019-02-16T09:27:13.920Z,102450.81
2019-02-16T09:30:07.532Z,102465.96
2019-02-16T09:32:48.443Z,102462.34
2019-02-16T09:35:54.295Z,102463.28
2019-02-16T09:38:44.945Z,102467.24
2019-02-16T09:41:38.444Z,102467.04
2019-02-16T09:44:22.377Z,102467.52
2019-02-16T09:47:15.729Z,102466.77
2019-02-16T09:50:14.387Z,102461.94
2019-02-16T09:53:06.808Z,102466.75
2019-02-16T09:56:03.298Z,102470.63
2019-02-16T09:58:51.021Z,102475.38
2019-02-16T10:01:40.833Z,102474.77
2019-02-16T10:04:34.493Z,102476.78
2019-02-16T10:07:44.233Z,102475.56
2019-02-16T10:10:34.571Z,102478.01
2019-02-16T10:13:20.657Z,102479.05
2019-02-16T10:16:29.959Z,102488.81
2019-02-16T10:19:36.124Z,102483.03
2019-02-16T10:22:29.927Z,102478.40
2019-02-16T10:25:22.991Z,102477.44
2019-02-16T10:28:10.945Z,102477.37
2019-02-16T10:31:07.432Z,102479.38
2019-02-16T10:33:52.064Z,102478.09
2019-02-16T10:36:48.898Z,102490.05
2019-02-16T10:39:49.490Z,102484.39
2019-02-16T10:42:34.748Z,102488.28
2019-02-16T10:45:28.906Z,102491.81
2019-02-16T10:48:34.306Z,102492.94
2019-02-16T10:51:21.661Z,102495.02
2019-02-16T10:54:27.005Z,102500.11
2019-02-16T10:57:14.237Z,102495.99
2019-02-16T11:00:16.786Z,102491.33
2019-02-16T11:03:13.517Z,102494.27
2019-02-16T11:06:00.845Z,102485.88
2019-02-16T11:09:00.627Z,102488.20
2019-02-16T11:12:00.805Z,102489.30
2019-02-16T11:14:52.913Z,102483.23
2019-02-16T11:17:58.893Z,102485.14
2019-02-16T11:20:52.602Z,102486.88
2019-02-16T11:24:01.734Z,102480.16
2019-02-16T11:27:04.628Z,102478.70
2019-02-16T11:30:02.293Z,102469.02
2019-02-16T11:32:44.019Z,102467.48
2019-02-16T11:35:36.237Z,102468.21
2019-02-16T11:38:28.888Z,102468.37
2019-02-16T11:41:21.525Z,102469.91
2019-02-16T11:44:14.251Z,102459.92
2019-02-16T11:46:56.447Z,102458.86
2019-02-16T11:49:53.441Z,102455.49
2019-02-16T11:53:02.544Z,102449.64
2019-02-16T11:55:54.561Z,102444.36
2019-02-16T11:58:43.111Z,102442.68
2019-02-16T12:01:35.556Z,102444.73
2019-02-16T12:04:17.219Z,102445.47
2019-02-16T12:06:59.225Z,102445.62
2019-02-16T12:10:00.842Z,102442.67
2019-02-16T12:12:50.880Z,102445.38
2019-02-16T12:15:38.691Z,102440.34
2019-02-16T12:18:28.766Z,102442.48
2019-02-16T12:21:21.540Z,102443.31
2019-02-16T12:24:12.345Z,102443.66
2019-02-16T12:26:58.451Z,102439.56
2019-02-16T12:29:52.175Z,102438.58
2019-02-16T12:32:44.689Z,102430.39
2019-02-16T12:35:42.630Z,102436.67
2019-02-16T12:38:37.577Z,102427.48
2019-02-16T12:41:31.435Z,102424.36
2019-02-16T12:44:34.302Z,102428.58
2019-02-16T12:47:26.919Z,102415.98
2019-02-16T12:50:23.968Z,102421.03
2019-02-16T12:53:19.047Z,102423.71
2019-02-16T12:56:15.190Z,102412.42
2019-02-16T12:59:02.051Z,102412.81
2019-02-16T13:01:47.830Z,102410.69
2019-02-16T13:04:40.382Z,102408.10
2019-02-16T13:07:35.287Z,102399.63
2019-02-16T13:10:44.019Z,102387.48
2019-02-16T13:13:46.991Z,102397.23
2019-02-16T13:16:52.793Z,102389.42
2019-02-16T13:19:48.999Z,102385.55
2019-02-16T13:22:34.423Z,102380.23
2019-02-16T13:25:27.005Z,102381.00
2019-02-16T13:28:35.833Z,102382.08
2019-02-16T13:31:38.282Z,102386.62
2019-02-16T13:34:31.945Z,102384.49
2019-02-16T13:37:39.035Z,102375.52
2019-02-16T13:40:31.622Z,102375.33
2019-02-16T13:43:24.129Z,102375.67
2019-02-16T13:46:16.717Z,102366.56
2019-02-16T13:48:57.593Z,102372.64
2019-02-16T13:51:53.965Z,102369.16
2019-02-16T13:54:35.228Z,102370.47
2019-02-16T13:57:23.799Z,102372.46
2019-02-16T14:00:11.405Z,102370.19
2019-02-16T14:03:03.899Z,102370.78
2019-02-16T14:06:03.591Z,102366.20
2019-02-16T14:08:57.414Z,102364.16
2019-02-16T14:11:54.088Z,102360.53
2019-02-16T14:14:35.259Z,102362.20
2019-02-16T14:17:29.011Z,102359.67
2019-02-16T14:20:03.851Z,102353.31
2019-02-16T14:22:38.762Z,102359.22
2019-02-16T14:25:19.510Z,102351.80
2019-02-16T14:27:54.388Z,102352.75
2019-02-16T14:30:29.249Z,102352.48
2019-02-16T14:33:04.056Z,102353.58
2019-02-16T14:35:39.041Z,102349.02
2019-02-16T14:38:38.800Z,102344.63
2019-02-16T14:41:14.125Z,102346.66
2019-02-16T14:43:49.808Z,102343.92
2019-02-16T14:46:24.624Z,102342.91
2019-02-16T14:49:01.117Z,102345.89
2019-02-16T14:51:36.328Z,102350.52
2019-02-16T14:54:11.392Z,102346.46
2019-02-16T14:56:46.174Z,102350.33
2019-02-16T14:59:21.804Z,102356.71
2019-02-16T15:01:56.560Z,102351.78
2019-02-16T15:04:31.575Z,102348.56
2019-02-16T15:07:06.447Z,102343.69
2019-02-16T15:09:41.241Z,102341.16
2019-02-16T15:12:16.004Z,102355.25
2019-02-16T15:14:50.774Z,102353.31
2019-02-16T15:17:25.666Z,102347.14
2019-02-16T15:20:00.455Z,102349.56
2019-02-16T15:22:35.468Z,102353.06
2019-02-16T15:25:11.278Z,102354.04
2019-02-16T15:27:46.103Z,102347.66
2019-02-16T15:30:20.957Z,102346.56
2019-02-16T15:32:55.738Z,102351.98
2019-02-16T15:35:30.604Z,102356.22
2019-02-16T15:38:17.994Z,102355.72
2019-02-16T15:40:55.710Z,102352.47
2019-02-16T15:43:30.819Z,102360.05
2019-02-16T15:46:05.782Z,102356.88
2019-02-16T15:48:40.600Z,102363.83
2019-02-16T15:51:15.392Z,102363.61
2019-02-16T15:53:50.621Z,102363.25
2019-02-16T15:56:25.512Z,102366.17
2019-02-16T15:59:00.489Z,102365.86
2019-02-16T16:01:35.489Z,102364.64
2019-02-16T16:04:11.168Z,102358.61
2019-02-16T16:06:46.956Z,102366.16
2019-02-16T16:09:44.769Z,102363.50
2019-02-16T16:12:42.970Z,102370.38
2019-02-16T16:15:28.344Z,102369.48
2019-02-16T16:18:22.656Z,102371.16
2019-02-16T16:21:11.306Z,102367.69
2019-02-16T16:24:03.904Z,102372.55
2019-02-16T16:26:52.920Z,102381.60
2019-02-16T16:29:45.466Z,102384.73
2019-02-16T16:32:48.321Z,102385.53
2019-02-16T16:35:48.646Z,102386.64
2019-02-16T16:38:52.192Z,102381.99
2019-02-16T16:41:44.141Z,102391.07
2019-02-16T16:44:36.790Z,102389.54
2019-02-16T16:47:39.301Z,102395.47
2019-02-16T16:50:31.755Z,102392.70
2019-02-16T16:53:13.069Z,102407.88
2019-02-16T16:55:56.324Z,102409.02
2019-02-16T16:59:00.204Z,102412.36
2019-02-16T17:01:49.975Z,102413.97
2019-02-16T17:04:47.316Z,102414.89
2019-02-16T17:07:32.538Z,102424.72
2019-02-16T17:10:29.754Z,102417.63
2019-02-16T17:13:17.916Z,102424.26
2019-02-16T17:16:11.666Z,102435.62
2019-02-16T17:19:08.204Z,102435.65
2019-02-16T17:21:52.345Z,102426.05
2019-02-16T17:24:44.640Z,102431.58
2019-02-16T17:27:44.434Z,102437.06
2019-02-16T17:30:38.054Z,102434.77
2019-02-16T17:33:20.083Z,102440.95
2019-02-16T17:36:02.734Z,102439.54
2019-02-16T17:39:11.428Z,102441.16
2019-02-16T17:42:05.156Z,102442.92
2019-02-16T17:44:57.398Z,102440.94
2019-02-16T17:47:56.932Z,102446.09
2019-02-16T17:50:50.944Z,102449.51
2019-02-16T17:53:43.355Z,102443.27
2019-02-16T17:56:30.554Z,102447.97
2019-02-16T17:59:20.186Z,102451.53
2019-02-16T18:02:06.451Z,102446.05
2019-02-16T18:05:12.406Z,102441.95
2019-02-16T18:08:05.598Z,102451.36
2019-02-16T18:10:52.224Z,102454.74
2019-02-16T18:13:51.990Z,102452.05
2019-02-16T18:16:32.379Z,102453.18
2019-02-16T18:19:13.092Z,102459.64
2019-02-16T18:21:56.299Z,102460.15
2019-02-16T18:24:52.986Z,102456.66
2019-02-16T18:27:44.954Z,102456.66
2019-02-16T18:30:37.150Z,102453.85
2019-02-16T18:33:34.834Z,102463.00
2019-02-16T18:36:14.440Z,102465.09
2019-02-16T18:39:20.088Z,102458.54
2019-02-16T18:42:13.825Z,102458.72
2019-02-16T18:45:04.849Z,102457.50
2019-02-16T18:47:54.322Z,102455.84
2019-02-16T18:50:47.681Z,102456.16
2019-02-16T18:53:50.478Z,102451.66
2019-02-16T18:56:37.186Z,102454.13
2019-02-16T18:59:28.510Z,102450.45
2019-02-16T19:02:25.475Z,102460.28
2019-02-16T19:05:21.008Z,102447.95
2019-02-16T19:08:15.969Z,102449.28
2019-02-16T19:11:00.313Z,102440.35
2019-02-16T19:13:57.833Z,102438.78
2019-02-16T19:16:50.546Z,102442.82
2019-02-16T19:19:45.486Z,102438.38
2019-02-16T19:22:54.512Z,102440.63
2019-02-16T19:25:43.677Z,102439.25
2019-02-16T19:28:37.322Z,102449.06
2019-02-16T19:34:56.128Z,102442.00
2019-02-16T19:37:45.705Z,102440.22
2019-02-16T19:40:29.887Z,102441.36
2019-02-16T19:43:39.659Z,102443.87
2019-02-16T19:46:47.428Z,102439.80
2019-02-16T19:49:42.750Z,102435.15
2019-02-16T19:52:36.374Z,102442.02
2019-02-16T19:55:42.500Z,102435.05
2019-02-16T19:58:43.661Z,102430.95
2019-02-16T20:01:28.611Z,102434.62
2019-02-16T20:04:32.504Z,102430.55
2019-02-16T20:07:29.177Z,102430.08
2019-02-16T20:10:14.097Z,102437.23
2019-02-16T20:13:07.790Z,102435.59
2019-02-16T20:15:49.468Z,102427.06
2019-02-16T20:18:36.516Z,102433.73
2019-02-16T20:21:26.520Z,102432.16
2019-02-16T20:24:38.070Z,102430.23
2019-02-16T20:27:37.375Z,102444.20
2019-02-16T20:30:28.951Z,102435.03
2019-02-16T20:33:18.667Z,102439.42
2019-02-16T20:36:12.843Z,102443.94
2019-02-16T20:39:12.512Z,102448.86
2019-02-16T20:42:30.476Z,102445.44
2019-02-16T20:45:23.103Z,102450.48
2019-02-16T20:48:15.695Z,102455.05
2019-02-16T20:51:18.550Z,102460.48
2019-02-16T20:54:15.356Z,102457.44
2019-02-16T20:57:12.722Z,102458.30
2019-02-16T21:00:04.711Z,102462.12
2019-02-16T21:02:46.284Z,102465.89
2019-02-16T21:05:43.066Z,102461.06
2019-02-16T21:08:30.970Z,102466.72
2019-02-16T21:11:15.933Z,102464.56
2019-02-16T21:14:09.254Z,102472.62
2019-02-16T21:17:02.609Z,102472.34
2019-02-16T21:19:59.286Z,102473.17
2019-02-16T21:22:47.119Z,102466.53
2019-02-16T21:25:49.755Z,102467.09
2019-02-16T21:28:44.257Z,102465.16
2019-02-16T21:34:50.683Z,102463.47
2019-02-16T21:37:45.337Z,102463.05
2019-02-16T21:40:45.311Z,102461.24
2019-02-16T21:43:34.173Z,102459.98
2019-02-16T21:46:28.859Z,102456.58
2019-02-16T21:49:24.751Z,102454.17
2019-02-16T21:52:25.682Z,102455.34
2019-02-16T21:55:24.192Z,102457.48
2019-02-16T21:58:08.881Z,102454.88
2019-02-16T22:01:04.657Z,102464.00
2019-02-16T22:03:57.717Z,102462.09
2019-02-16T22:06:52.207Z,102463.73
2019-02-16T22:09:38.209Z,102466.67
2019-02-16T22:15:52.413Z,102458.05
2019-02-16T22:18:27.272Z,102454.50
2019-02-16T22:21:02.919Z,102457.58
2019-02-16T22:23:38.545Z,102458.28
2019-02-16T22:26:13.448Z,102456.95
2019-02-16T22:28:49.091Z,102457.95
2019-02-16T22:31:24.003Z,102458.14
2019-02-16T22:33:58.881Z,102457.94
2019-02-16T22:36:33.711Z,102457.94
2019-02-16T22:39:15.545Z,102449.39
2019-02-16T22:41:51.351Z,102447.42
2019-02-16T22:44:26.155Z,102450.19
2019-02-16T22:47:01.059Z,102453.77
2019-02-16T22:49:35.829Z,102447.00
2019-02-16T22:52:12.272Z,102454.47
2019-02-16T22:54:47.481Z,102442.78
2019-02-16T22:57:22.296Z,102453.88
2019-02-16T22:59:57.915Z,102450.26
2019-02-16T23:02:35.953Z,102448.67
2019-02-16T23:05:13.251Z,102449.35
2019-02-16T23:07:49.212Z,102454.02
2019-02-16T23:10:24.877Z,102458.60
2019-02-16T23:13:00.528Z,102457.34
2019-02-16T23:15:36.304Z,102455.55
2019-02-16T23:18:11.090Z,102452.95
2019-02-16T23:20:47.806Z,102455.39
2019-02-16T23:23:22.775Z,102452.64
2019-02-16T23:26:10.647Z,102459.00
2019-02-16T23:28:45.403Z,102455.11
2019-02-16T23:31:21.114Z,102454.62
2019-02-16T23:33:56.954Z,102456.40
2019-02-16T23:36:39.717Z,102446.17
2019-02-16T23:39:15.509Z,102453.50
2019-02-16T23:42:05.651Z,102449.28
2019-02-16T23:44:40.358Z,102447.80
2019-02-16T23:47:15.012Z,102447.33
2019-02-16T23:49:50.732Z,102449.59
2019-02-16T23:52:47.062Z,102448.80
2019-02-16T23:55:22.742Z,102447.98
2019-02-16T23:57:58.451Z,102444.09
